sensor_id;sensor_type;location;lat;lon;timestamp;temperature;humidity
30037;DHT22;36325;51.512;-0.382;2023-08-08T00:04:00;14.10;99.90
30037;DHT22;36325;51.512;-0.382;2023-08-08T00:06:30;14.20;99.90
30037;DHT22;36325;51.512;-0.382;2023-08-08T00:09:13;14.20;99.90
30037;DHT22;36325;51.512;-0.382;2023-08-08T00:14:26;14.20;99.90
30037;DHT22;36325;51.512;-0.382;2023-08-08T00:17:02;14.30;99.90
30037;DHT22;36325;51.512;-0.382;2023-08-08T00:20:00;14.30;99.90
30037;DHT22;36325;51.512;-0.382;2023-08-08T00:22:30;14.30;99.90
30037;DHT22;36325;51.512;-0.382;2023-08-08T00:25:12;14.30;99.90
30037;DHT22;36325;51.512;-0.382;2023-08-08T00:27:46;14.30;99.90
30037;DHT22;36325;51.512;-0.382;2023-08-08T00:30:16;14.30;99.90
30037;DHT22;36325;51.512;-0.382;2023-08-08T00:32:49;14.30;99.90
30037;DHT22;36325;51.512;-0.382;2023-08-08T00:35:26;14.30;99.90
30037;DHT22;36325;51.512;-0.382;2023-08-08T00:37:57;14.30;99.90
30037;DHT22;36325;51.512;-0.382;2023-08-08T00:40:35;14.20;99.90
30037;DHT22;36325;51.512;-0.382;2023-08-08T00:43:05;14.20;99.90
30037;DHT22;36325;51.512;-0.382;2023-08-08T00:46:08;14.10;99.90
30037;DHT22;36325;51.512;-0.382;2023-08-08T00:48:36;14.10;99.90
30037;DHT22;36325;51.512;-0.382;2023-08-08T00:51:09;14.10;99.90
30037;DHT22;36325;51.512;-0.382;2023-08-08T01:02:37;13.70;99.90
30037;DHT22;36325;51.512;-0.382;2023-08-08T01:05:19;13.60;99.90
30037;DHT22;36325;51.512;-0.382;2023-08-08T01:08:05;13.60;99.90
30037;DHT22;36325;51.512;-0.382;2023-08-08T01:10:38;13.60;99.90
30037;DHT22;36325;51.512;-0.382;2023-08-08T01:13:22;13.60;99.90
30037;DHT22;36325;51.512;-0.382;2023-08-08T01:16:00;13.60;99.90
30037;DHT22;36325;51.512;-0.382;2023-08-08T01:18:33;13.40;99.90
30037;DHT22;36325;51.512;-0.382;2023-08-08T01:21:06;13.40;99.90
30037;DHT22;36325;51.512;-0.382;2023-08-08T01:26:46;13.30;99.90
30037;DHT22;36325;51.512;-0.382;2023-08-08T01:59:55;12.90;99.90
30037;DHT22;36325;51.512;-0.382;2023-08-08T02:02:27;12.90;99.90
30037;DHT22;36325;51.512;-0.382;2023-08-08T02:05:03;12.90;99.90
30037;DHT22;36325;51.512;-0.382;2023-08-08T02:07:33;12.80;99.90
30037;DHT22;36325;51.512;-0.382;2023-08-08T02:10:04;12.80;99.90
30037;DHT22;36325;51.512;-0.382;2023-08-08T02:12:32;16.50;99.90
30037;DHT22;36325;51.512;-0.382;2023-08-08T02:18:23;12.70;99.90
30037;DHT22;36325;51.512;-0.382;2023-08-08T02:21:04;12.70;99.90
30037;DHT22;36325;51.512;-0.382;2023-08-08T02:24:16;12.70;99.90
30037;DHT22;36325;51.512;-0.382;2023-08-08T02:26:57;12.70;99.90
30037;DHT22;36325;51.512;-0.382;2023-08-08T02:29:38;12.60;99.90
30037;DHT22;36325;51.512;-0.382;2023-08-08T02:32:14;12.70;99.90
30037;DHT22;36325;51.512;-0.382;2023-08-08T02:35:07;12.60;99.90
30037;DHT22;36325;51.512;-0.382;2023-08-08T03:16:30;13.00;99.90
30037;DHT22;36325;51.512;-0.382;2023-08-08T03:19:16;13.10;99.90
30037;DHT22;36325;51.512;-0.382;2023-08-08T03:21:48;13.10;99.90
30037;DHT22;36325;51.512;-0.382;2023-08-08T03:24:55;13.10;99.90
30037;DHT22;36325;51.512;-0.382;2023-08-08T03:27:35;13.20;99.90
30037;DHT22;36325;51.512;-0.382;2023-08-08T03:30:17;13.20;99.90
30037;DHT22;36325;51.512;-0.382;2023-08-08T03:32:56;13.30;99.90
30037;DHT22;36325;51.512;-0.382;2023-08-08T03:35:43;13.30;99.90
30037;DHT22;36325;51.512;-0.382;2023-08-08T03:38:12;13.30;99.90
30037;DHT22;36325;51.512;-0.382;2023-08-08T03:41:00;13.30;99.90
30037;DHT22;36325;51.512;-0.382;2023-08-08T03:46:33;13.40;99.90
30037;DHT22;36325;51.512;-0.382;2023-08-08T03:49:18;13.60;99.90
30037;DHT22;36325;51.512;-0.382;2023-08-08T03:51:48;13.40;99.90
30037;DHT22;36325;51.512;-0.382;2023-08-08T03:54:33;13.40;99.90
30037;DHT22;36325;51.512;-0.382;2023-08-08T03:57:13;13.50;99.90
30037;DHT22;36325;51.512;-0.382;2023-08-08T03:59:58;13.50;99.90
30037;DHT22;36325;51.512;-0.382;2023-08-08T04:02:39;13.50;99.90
30037;DHT22;36325;51.512;-0.382;2023-08-08T04:05:20;13.50;99.90
30037;DHT22;36325;51.512;-0.382;2023-08-08T04:08:20;13.50;99.90
30037;DHT22;36325;51.512;-0.382;2023-08-08T04:11:02;13.40;99.90
30037;DHT22;36325;51.512;-0.382;2023-08-08T04:14:10;13.40;99.90
30037;DHT22;36325;51.512;-0.382;2023-08-08T04:16:40;13.30;99.90
30037;DHT22;36325;51.512;-0.382;2023-08-08T04:19:15;13.40;99.90
30037;DHT22;36325;51.512;-0.382;2023-08-08T04:21:45;13.30;99.90
30037;DHT22;36325;51.512;-0.382;2023-08-08T04:24:27;13.30;99.90
30037;DHT22;36325;51.512;-0.382;2023-08-08T04:42:29;13.00;99.90
30037;DHT22;36325;51.512;-0.382;2023-08-08T04:45:11;13.00;99.90
30037;DHT22;36325;51.512;-0.382;2023-08-08T04:47:42;13.00;99.90
30037;DHT22;36325;51.512;-0.382;2023-08-08T04:50:14;12.90;99.90
30037;DHT22;36325;51.512;-0.382;2023-08-08T04:52:49;12.90;99.90
30037;DHT22;36325;51.512;-0.382;2023-08-08T04:55:23;12.90;99.90
30037;DHT22;36325;51.512;-0.382;2023-08-08T04:57:51;12.80;99.90
30037;DHT22;36325;51.512;-0.382;2023-08-08T05:00:21;12.80;99.90
30037;DHT22;36325;51.512;-0.382;2023-08-08T05:02:50;12.80;99.90
30037;DHT22;36325;51.512;-0.382;2023-08-08T05:08:15;12.80;99.90
30037;DHT22;36325;51.512;-0.382;2023-08-08T05:10:51;12.90;99.90
30037;DHT22;36325;51.512;-0.382;2023-08-08T05:13:33;13.00;99.90
30037;DHT22;36325;51.512;-0.382;2023-08-08T05:16:12;13.00;99.90
30037;DHT22;36325;51.512;-0.382;2023-08-08T05:18:46;13.10;99.90
30037;DHT22;36325;51.512;-0.382;2023-08-08T05:21:18;13.20;99.90
30037;DHT22;36325;51.512;-0.382;2023-08-08T05:23:52;13.20;99.90
30037;DHT22;36325;51.512;-0.382;2023-08-08T05:26:22;13.30;99.90
30037;DHT22;36325;51.512;-0.382;2023-08-08T05:29:02;13.40;99.90
30037;DHT22;36325;51.512;-0.382;2023-08-08T05:31:44;13.40;99.90
30037;DHT22;36325;51.512;-0.382;2023-08-08T05:34:14;13.50;99.90
30037;DHT22;36325;51.512;-0.382;2023-08-08T05:37:00;13.40;99.90
30037;DHT22;36325;51.512;-0.382;2023-08-08T05:39:45;13.60;99.90
30037;DHT22;36325;51.512;-0.382;2023-08-08T05:42:19;13.60;99.90
30037;DHT22;36325;51.512;-0.382;2023-08-08T05:50:57;13.80;99.90
30037;DHT22;36325;51.512;-0.382;2023-08-08T05:53:29;13.90;99.90
30037;DHT22;36325;51.512;-0.382;2023-08-08T05:56:03;13.90;99.90
30037;DHT22;36325;51.512;-0.382;2023-08-08T06:07:52;14.20;99.90
30037;DHT22;36325;51.512;-0.382;2023-08-08T06:10:41;14.30;99.90
30037;DHT22;36325;51.512;-0.382;2023-08-08T06:15:43;14.50;99.90
30037;DHT22;36325;51.512;-0.382;2023-08-08T06:18:14;14.50;99.90
30037;DHT22;36325;51.512;-0.382;2023-08-08T06:29:59;14.80;99.90
30037;DHT22;36325;51.512;-0.382;2023-08-08T06:32:49;14.90;99.90
30037;DHT22;36325;51.512;-0.382;2023-08-08T06:35:25;14.90;99.90
30037;DHT22;36325;51.512;-0.382;2023-08-08T06:37:55;15.00;99.90
30037;DHT22;36325;51.512;-0.382;2023-08-08T06:40:39;15.10;99.90
30037;DHT22;36325;51.512;-0.382;2023-08-08T06:43:22;15.20;99.90
30037;DHT22;36325;51.512;-0.382;2023-08-08T06:46:07;15.20;99.90
30037;DHT22;36325;51.512;-0.382;2023-08-08T06:48:42;15.50;99.90
30037;DHT22;36325;51.512;-0.382;2023-08-08T06:51:16;15.60;99.90
30037;DHT22;36325;51.512;-0.382;2023-08-08T06:53:51;12.80;99.90
30037;DHT22;36325;51.512;-0.382;2023-08-08T06:56:26;15.70;99.90
30037;DHT22;36325;51.512;-0.382;2023-08-08T06:58:58;15.70;99.90
30037;DHT22;36325;51.512;-0.382;2023-08-08T07:01:33;15.80;99.90
30037;DHT22;36325;51.512;-0.382;2023-08-08T07:04:01;15.80;99.90
30037;DHT22;36325;51.512;-0.382;2023-08-08T07:06:55;15.80;99.90
30037;DHT22;36325;51.512;-0.382;2023-08-08T07:09:28;15.70;99.90
30037;DHT22;36325;51.512;-0.382;2023-08-08T07:12:11;15.70;99.90
30037;DHT22;36325;51.512;-0.382;2023-08-08T07:14:51;15.70;99.90
30037;DHT22;36325;51.512;-0.382;2023-08-08T07:17:36;15.70;99.90
30037;DHT22;36325;51.512;-0.382;2023-08-08T07:20:29;15.60;99.90
30037;DHT22;36325;51.512;-0.382;2023-08-08T07:25:47;15.60;99.90
30037;DHT22;36325;51.512;-0.382;2023-08-08T07:28:30;15.60;99.90
30037;DHT22;36325;51.512;-0.382;2023-08-08T07:31:00;15.60;99.90
30037;DHT22;36325;51.512;-0.382;2023-08-08T07:33:29;15.60;99.90
30037;DHT22;36325;51.512;-0.382;2023-08-08T07:36:14;15.50;99.90
30037;DHT22;36325;51.512;-0.382;2023-08-08T07:38:43;15.30;99.90
30037;DHT22;36325;51.512;-0.382;2023-08-08T07:44:33;15.30;99.90
30037;DHT22;36325;51.512;-0.382;2023-08-08T07:47:05;15.20;99.90
30037;DHT22;36325;51.512;-0.382;2023-08-08T07:50:07;15.20;99.90
30037;DHT22;36325;51.512;-0.382;2023-08-08T07:52:44;15.00;99.90
30037;DHT22;36325;51.512;-0.382;2023-08-08T07:55:16;15.10;99.90
30037;DHT22;36325;51.512;-0.382;2023-08-08T07:57:46;15.10;99.90
30037;DHT22;36325;51.512;-0.382;2023-08-08T08:00:16;15.20;99.90
30037;DHT22;36325;51.512;-0.382;2023-08-08T08:02:48;15.30;99.90
30037;DHT22;36325;51.512;-0.382;2023-08-08T08:05:17;15.40;99.90
30037;DHT22;36325;51.512;-0.382;2023-08-08T08:07:46;15.40;99.90
30037;DHT22;36325;51.512;-0.382;2023-08-08T08:10:15;15.50;99.90
30037;DHT22;36325;51.512;-0.382;2023-08-08T08:12:46;15.60;99.90
30037;DHT22;36325;51.512;-0.382;2023-08-08T08:15:19;15.70;99.90
30037;DHT22;36325;51.512;-0.382;2023-08-08T08:17:53;15.70;99.90
30037;DHT22;36325;51.512;-0.382;2023-08-08T08:20:32;15.80;99.90
30037;DHT22;36325;51.512;-0.382;2023-08-08T08:23:13;15.90;99.90
30037;DHT22;36325;51.512;-0.382;2023-08-08T08:25:41;15.90;99.90
30037;DHT22;36325;51.512;-0.382;2023-08-08T08:28:25;15.90;99.90
30037;DHT22;36325;51.512;-0.382;2023-08-08T08:31:05;15.90;99.90
30037;DHT22;36325;51.512;-0.382;2023-08-08T08:33:36;15.80;99.90
30037;DHT22;36325;51.512;-0.382;2023-08-08T08:36:17;15.90;99.90
30037;DHT22;36325;51.512;-0.382;2023-08-08T08:38:49;16.00;99.90
30037;DHT22;36325;51.512;-0.382;2023-08-08T08:41:20;15.90;99.90
30037;DHT22;36325;51.512;-0.382;2023-08-08T08:43:49;15.90;99.90
30037;DHT22;36325;51.512;-0.382;2023-08-08T08:46:21;15.90;99.90
30037;DHT22;36325;51.512;-0.382;2023-08-08T08:48:50;16.00;99.90
30037;DHT22;36325;51.512;-0.382;2023-08-08T08:51:21;16.00;99.90
30037;DHT22;36325;51.512;-0.382;2023-08-08T08:53:49;16.00;99.90
30037;DHT22;36325;51.512;-0.382;2023-08-08T08:56:18;15.90;99.90
30037;DHT22;36325;51.512;-0.382;2023-08-08T08:58:47;15.90;99.90
30037;DHT22;36325;51.512;-0.382;2023-08-08T09:01:29;16.00;99.90
30037;DHT22;36325;51.512;-0.382;2023-08-08T09:03:58;16.00;99.90
30037;DHT22;36325;51.512;-0.382;2023-08-08T09:06:27;15.60;99.90
30037;DHT22;36325;51.512;-0.382;2023-08-08T09:09:09;15.90;99.90
30037;DHT22;36325;51.512;-0.382;2023-08-08T09:11:51;16.00;99.90
30037;DHT22;36325;51.512;-0.382;2023-08-08T09:14:25;16.00;99.90
30037;DHT22;36325;51.512;-0.382;2023-08-08T09:16:56;15.90;99.90
30037;DHT22;36325;51.512;-0.382;2023-08-08T09:19:25;15.90;99.90
30037;DHT22;36325;51.512;-0.382;2023-08-08T09:22:19;15.90;99.90
30037;DHT22;36325;51.512;-0.382;2023-08-08T09:24:47;15.90;99.90
30037;DHT22;36325;51.512;-0.382;2023-08-08T09:27:17;15.90;99.90
30037;DHT22;36325;51.512;-0.382;2023-08-08T09:29:59;15.90;99.90
30037;DHT22;36325;51.512;-0.382;2023-08-08T09:32:32;16.00;99.90
30037;DHT22;36325;51.512;-0.382;2023-08-08T09:34:59;16.00;99.90
30037;DHT22;36325;51.512;-0.382;2023-08-08T09:37:30;15.90;99.90
30037;DHT22;36325;51.512;-0.382;2023-08-08T09:39:59;15.80;99.90
30037;DHT22;36325;51.512;-0.382;2023-08-08T09:42:29;15.80;99.90
30037;DHT22;36325;51.512;-0.382;2023-08-08T09:45:22;15.60;99.90
30037;DHT22;36325;51.512;-0.382;2023-08-08T09:47:53;15.60;99.90
30037;DHT22;36325;51.512;-0.382;2023-08-08T09:50:22;15.60;99.90
30037;DHT22;36325;51.512;-0.382;2023-08-08T09:52:52;15.60;99.90
30037;DHT22;36325;51.512;-0.382;2023-08-08T09:55:23;15.60;99.90
30037;DHT22;36325;51.512;-0.382;2023-08-08T09:58:08;15.40;99.90
30037;DHT22;36325;51.512;-0.382;2023-08-08T10:00:37;15.40;99.90
30037;DHT22;36325;51.512;-0.382;2023-08-08T10:03:20;15.40;99.90
30037;DHT22;36325;51.512;-0.382;2023-08-08T10:05:57;15.40;99.90
30037;DHT22;36325;51.512;-0.382;2023-08-08T10:08:27;15.40;99.90
30037;DHT22;36325;51.512;-0.382;2023-08-08T10:10:59;15.40;99.90
30037;DHT22;36325;51.512;-0.382;2023-08-08T10:13:53;15.50;99.90
30037;DHT22;36325;51.512;-0.382;2023-08-08T10:16:32;15.40;99.90
30037;DHT22;36325;51.512;-0.382;2023-08-08T10:19:04;15.40;99.90
30037;DHT22;36325;51.512;-0.382;2023-08-08T10:25:24;15.40;99.90
30037;DHT22;36325;51.512;-0.382;2023-08-08T10:28:11;15.40;99.90
30037;DHT22;36325;51.512;-0.382;2023-08-08T10:31:00;15.40;99.90
30037;DHT22;36325;51.512;-0.382;2023-08-08T10:33:43;15.50;99.90
30037;DHT22;36325;51.512;-0.382;2023-08-08T10:36:14;15.50;99.90
30037;DHT22;36325;51.512;-0.382;2023-08-08T10:38:58;15.60;99.90
30037;DHT22;36325;51.512;-0.382;2023-08-08T10:41:29;15.80;99.90
30037;DHT22;36325;51.512;-0.382;2023-08-08T10:43:59;16.00;99.90
30037;DHT22;36325;51.512;-0.382;2023-08-08T10:46:33;16.00;99.90
30037;DHT22;36325;51.512;-0.382;2023-08-08T10:49:17;16.10;99.90
30037;DHT22;36325;51.512;-0.382;2023-08-08T10:51:48;16.30;99.90
30037;DHT22;36325;51.512;-0.382;2023-08-08T10:54:25;16.50;99.90
30037;DHT22;36325;51.512;-0.382;2023-08-08T10:57:15;16.60;99.90
30037;DHT22;36325;51.512;-0.382;2023-08-08T11:03:06;17.00;99.90
30037;DHT22;36325;51.512;-0.382;2023-08-08T11:05:36;17.00;99.90
30037;DHT22;36325;51.512;-0.382;2023-08-08T11:08:20;17.10;99.90
30037;DHT22;36325;51.512;-0.382;2023-08-08T11:10:53;16.60;99.90
30037;DHT22;36325;51.512;-0.382;2023-08-08T11:16:53;17.10;99.90
30037;DHT22;36325;51.512;-0.382;2023-08-08T11:19:41;17.10;99.90
30037;DHT22;36325;51.512;-0.382;2023-08-08T11:22:24;17.20;99.90
30037;DHT22;36325;51.512;-0.382;2023-08-08T11:25:05;17.10;99.90
30037;DHT22;36325;51.512;-0.382;2023-08-08T11:27:58;17.10;99.90
30037;DHT22;36325;51.512;-0.382;2023-08-08T11:30:42;17.30;99.90
30037;DHT22;36325;51.512;-0.382;2023-08-08T11:33:16;17.30;99.90
30037;DHT22;36325;51.512;-0.382;2023-08-08T11:35:46;17.60;99.90
30037;DHT22;36325;51.512;-0.382;2023-08-08T11:38:27;17.50;99.90
30037;DHT22;36325;51.512;-0.382;2023-08-08T11:44:36;17.80;99.90
30037;DHT22;36325;51.512;-0.382;2023-08-08T11:47:37;17.70;99.90
30037;DHT22;36325;51.512;-0.382;2023-08-08T11:50:21;17.50;99.90
30037;DHT22;36325;51.512;-0.382;2023-08-08T11:52:53;17.40;99.90
30037;DHT22;36325;51.512;-0.382;2023-08-08T11:55:27;15.90;99.90
30037;DHT22;36325;51.512;-0.382;2023-08-08T11:58:03;17.20;99.90
30037;DHT22;36325;51.512;-0.382;2023-08-08T12:00:38;17.10;99.90
30037;DHT22;36325;51.512;-0.382;2023-08-08T12:03:05;17.20;99.90
30037;DHT22;36325;51.512;-0.382;2023-08-08T12:05:38;17.30;99.90
30037;DHT22;36325;51.512;-0.382;2023-08-08T12:08:06;17.30;99.90
30037;DHT22;36325;51.512;-0.382;2023-08-08T12:10:51;17.30;99.90
30037;DHT22;36325;51.512;-0.382;2023-08-08T12:13:22;17.40;99.90
30037;DHT22;36325;51.512;-0.382;2023-08-08T12:15:50;17.40;99.90
30037;DHT22;36325;51.512;-0.382;2023-08-08T12:18:19;17.40;99.90
30037;DHT22;36325;51.512;-0.382;2023-08-08T12:20:48;17.30;99.90
30037;DHT22;36325;51.512;-0.382;2023-08-08T12:23:21;17.30;99.90
30037;DHT22;36325;51.512;-0.382;2023-08-08T12:25:49;17.20;99.90
30037;DHT22;36325;51.512;-0.382;2023-08-08T12:28:32;17.20;99.90
30037;DHT22;36325;51.512;-0.382;2023-08-08T12:31:01;17.10;99.90
30037;DHT22;36325;51.512;-0.382;2023-08-08T12:33:39;17.10;99.90
30037;DHT22;36325;51.512;-0.382;2023-08-08T12:36:09;17.10;99.90
30037;DHT22;36325;51.512;-0.382;2023-08-08T12:38:52;17.10;99.90
30037;DHT22;36325;51.512;-0.382;2023-08-08T12:41:22;17.10;99.90
30037;DHT22;36325;51.512;-0.382;2023-08-08T12:43:52;17.20;99.90
30037;DHT22;36325;51.512;-0.382;2023-08-08T12:46:21;17.20;99.90
30037;DHT22;36325;51.512;-0.382;2023-08-08T12:49:10;17.30;99.90
30037;DHT22;36325;51.512;-0.382;2023-08-08T12:51:45;17.30;99.90
30037;DHT22;36325;51.512;-0.382;2023-08-08T12:54:19;17.40;99.90
30037;DHT22;36325;51.512;-0.382;2023-08-08T12:57:01;17.30;99.90
30037;DHT22;36325;51.512;-0.382;2023-08-08T12:59:33;17.20;99.90
30037;DHT22;36325;51.512;-0.382;2023-08-08T13:02:14;17.10;99.90
30037;DHT22;36325;51.512;-0.382;2023-08-08T13:04:42;17.00;99.90
30037;DHT22;36325;51.512;-0.382;2023-08-08T13:07:15;17.00;99.90
30037;DHT22;36325;51.512;-0.382;2023-08-08T13:09:43;17.00;99.90
30037;DHT22;36325;51.512;-0.382;2023-08-08T13:12:13;16.90;99.90
30037;DHT22;36325;51.512;-0.382;2023-08-08T13:14:51;16.90;99.90
30037;DHT22;36325;51.512;-0.382;2023-08-08T13:17:23;15.60;99.90
30037;DHT22;36325;51.512;-0.382;2023-08-08T13:20:05;16.80;99.90
30037;DHT22;36325;51.512;-0.382;2023-08-08T13:22:43;16.80;99.90
30037;DHT22;36325;51.512;-0.382;2023-08-08T13:25:21;16.70;99.90
30037;DHT22;36325;51.512;-0.382;2023-08-08T13:28:01;16.70;99.90
30037;DHT22;36325;51.512;-0.382;2023-08-08T13:30:46;16.70;99.90
30037;DHT22;36325;51.512;-0.382;2023-08-08T13:33:14;16.60;99.90
30037;DHT22;36325;51.512;-0.382;2023-08-08T13:35:53;16.50;99.90
30037;DHT22;36325;51.512;-0.382;2023-08-08T13:38:21;16.60;99.90
30037;DHT22;36325;51.512;-0.382;2023-08-08T13:40:50;16.50;99.90
30037;DHT22;36325;51.512;-0.382;2023-08-08T13:45:46;16.60;99.90
30037;DHT22;36325;51.512;-0.382;2023-08-08T13:48:14;16.60;99.90
30037;DHT22;36325;51.512;-0.382;2023-08-08T13:50:46;16.70;99.90
30037;DHT22;36325;51.512;-0.382;2023-08-08T13:53:15;16.70;99.90
30037;DHT22;36325;51.512;-0.382;2023-08-08T13:55:42;16.60;99.90
30037;DHT22;36325;51.512;-0.382;2023-08-08T13:58:12;16.60;99.90
30037;DHT22;36325;51.512;-0.382;2023-08-08T14:00:43;16.50;99.90
30037;DHT22;36325;51.512;-0.382;2023-08-08T14:03:39;16.60;99.90
30037;DHT22;36325;51.512;-0.382;2023-08-08T14:06:11;16.60;99.90
30037;DHT22;36325;51.512;-0.382;2023-08-08T14:08:42;16.60;99.90
30037;DHT22;36325;51.512;-0.382;2023-08-08T14:11:13;16.60;99.90
30037;DHT22;36325;51.512;-0.382;2023-08-08T14:13:42;16.70;99.90
30037;DHT22;36325;51.512;-0.382;2023-08-08T14:16:32;16.80;99.90
30037;DHT22;36325;51.512;-0.382;2023-08-08T14:19:11;17.80;99.90
30037;DHT22;36325;51.512;-0.382;2023-08-08T14:21:43;16.90;99.90
30037;DHT22;36325;51.512;-0.382;2023-08-08T14:24:13;17.00;99.90
30037;DHT22;36325;51.512;-0.382;2023-08-08T14:26:55;17.00;99.90
30037;DHT22;36325;51.512;-0.382;2023-08-08T14:29:28;14.30;99.90
30037;DHT22;36325;51.512;-0.382;2023-08-08T14:32:25;17.00;99.90
30037;DHT22;36325;51.512;-0.382;2023-08-08T14:34:54;17.10;99.90
30037;DHT22;36325;51.512;-0.382;2023-08-08T14:37:26;17.10;99.90
30037;DHT22;36325;51.512;-0.382;2023-08-08T14:39:54;17.20;99.90
30037;DHT22;36325;51.512;-0.382;2023-08-08T14:42:34;17.10;99.90
30037;DHT22;36325;51.512;-0.382;2023-08-08T14:45:01;17.10;99.90
30037;DHT22;36325;51.512;-0.382;2023-08-08T14:47:30;17.10;99.90
30037;DHT22;36325;51.512;-0.382;2023-08-08T14:49:57;17.10;99.90
30037;DHT22;36325;51.512;-0.382;2023-08-08T14:52:26;17.10;99.90
30037;DHT22;36325;51.512;-0.382;2023-08-08T14:54:54;17.10;99.90
30037;DHT22;36325;51.512;-0.382;2023-08-08T14:57:23;17.10;99.90
30037;DHT22;36325;51.512;-0.382;2023-08-08T14:59:50;17.10;99.90
30037;DHT22;36325;51.512;-0.382;2023-08-08T15:02:20;17.10;99.90
30037;DHT22;36325;51.512;-0.382;2023-08-08T15:05:02;17.00;99.90
30037;DHT22;36325;51.512;-0.382;2023-08-08T15:07:32;17.10;99.90
30037;DHT22;36325;51.512;-0.382;2023-08-08T15:10:09;17.10;99.90
30037;DHT22;36325;51.512;-0.382;2023-08-08T15:12:41;17.10;99.90
30037;DHT22;36325;51.512;-0.382;2023-08-08T15:15:09;17.20;99.90
30037;DHT22;36325;51.512;-0.382;2023-08-08T15:17:39;17.10;99.90
30037;DHT22;36325;51.512;-0.382;2023-08-08T15:20:24;17.20;99.90
30037;DHT22;36325;51.512;-0.382;2023-08-08T15:22:58;17.20;99.90
30037;DHT22;36325;51.512;-0.382;2023-08-08T15:25:44;17.20;99.90
30037;DHT22;36325;51.512;-0.382;2023-08-08T15:28:15;17.30;99.90
30037;DHT22;36325;51.512;-0.382;2023-08-08T15:30:48;17.30;99.90
30037;DHT22;36325;51.512;-0.382;2023-08-08T15:35:45;17.30;99.90
30037;DHT22;36325;51.512;-0.382;2023-08-08T15:38:17;17.50;99.90
30037;DHT22;36325;51.512;-0.382;2023-08-08T15:40:45;17.50;99.90
30037;DHT22;36325;51.512;-0.382;2023-08-08T15:43:15;17.50;99.90
30037;DHT22;36325;51.512;-0.382;2023-08-08T15:45:57;17.50;99.90
30037;DHT22;36325;51.512;-0.382;2023-08-08T15:48:26;17.60;99.90
30037;DHT22;36325;51.512;-0.382;2023-08-08T15:51:13;17.70;99.90
30037;DHT22;36325;51.512;-0.382;2023-08-08T15:53:50;17.60;99.90
30037;DHT22;36325;51.512;-0.382;2023-08-08T15:56:31;17.50;99.90
30037;DHT22;36325;51.512;-0.382;2023-08-08T15:59:01;17.50;99.90
30037;DHT22;36325;51.512;-0.382;2023-08-08T16:05:19;17.50;99.90
30037;DHT22;36325;51.512;-0.382;2023-08-08T16:08:01;17.50;99.90
30037;DHT22;36325;51.512;-0.382;2023-08-08T16:10:45;17.50;99.90
30037;DHT22;36325;51.512;-0.382;2023-08-08T16:13:21;17.60;99.90
30037;DHT22;36325;51.512;-0.382;2023-08-08T16:16:25;17.70;99.90
30037;DHT22;36325;51.512;-0.382;2023-08-08T16:18:58;17.70;99.90
30037;DHT22;36325;51.512;-0.382;2023-08-08T16:21:25;17.70;99.90
30037;DHT22;36325;51.512;-0.382;2023-08-08T16:23:54;17.80;99.90
30037;DHT22;36325;51.512;-0.382;2023-08-08T16:26:22;17.70;99.90
30037;DHT22;36325;51.512;-0.382;2023-08-08T16:29:12;17.80;99.90
30037;DHT22;36325;51.512;-0.382;2023-08-08T16:31:45;17.70;99.90
30037;DHT22;36325;51.512;-0.382;2023-08-08T16:34:19;17.70;99.90
30037;DHT22;36325;51.512;-0.382;2023-08-08T16:36:48;17.70;99.90
30037;DHT22;36325;51.512;-0.382;2023-08-08T16:39:16;17.70;99.90
30037;DHT22;36325;51.512;-0.382;2023-08-08T16:41:45;17.70;99.90
30037;DHT22;36325;51.512;-0.382;2023-08-08T16:44:27;17.70;99.90
30037;DHT22;36325;51.512;-0.382;2023-08-08T16:46:56;17.70;99.90
30037;DHT22;36325;51.512;-0.382;2023-08-08T16:49:51;17.80;99.90
30037;DHT22;36325;51.512;-0.382;2023-08-08T16:52:20;16.90;99.90
30037;DHT22;36325;51.512;-0.382;2023-08-08T16:55:02;17.80;99.90
30037;DHT22;36325;51.512;-0.382;2023-08-08T16:57:33;17.80;99.90
30037;DHT22;36325;51.512;-0.382;2023-08-08T17:00:07;17.80;99.90
30037;DHT22;36325;51.512;-0.382;2023-08-08T17:02:39;17.80;99.90
30037;DHT22;36325;51.512;-0.382;2023-08-08T17:05:20;17.80;99.90
30037;DHT22;36325;51.512;-0.382;2023-08-08T17:07:48;17.80;99.90
30037;DHT22;36325;51.512;-0.382;2023-08-08T17:10:30;17.80;99.90
30037;DHT22;36325;51.512;-0.382;2023-08-08T17:12:59;17.80;99.90
30037;DHT22;36325;51.512;-0.382;2023-08-08T17:15:41;17.80;99.90
30037;DHT22;36325;51.512;-0.382;2023-08-08T17:18:09;17.80;99.90
30037;DHT22;36325;51.512;-0.382;2023-08-08T17:20:52;17.80;99.90
30037;DHT22;36325;51.512;-0.382;2023-08-08T17:23:34;17.80;99.90
30037;DHT22;36325;51.512;-0.382;2023-08-08T17:26:02;17.80;99.90
30037;DHT22;36325;51.512;-0.382;2023-08-08T17:28:32;17.80;99.90
30037;DHT22;36325;51.512;-0.382;2023-08-08T17:34:04;17.80;99.90
30037;DHT22;36325;51.512;-0.382;2023-08-08T17:48:55;17.60;99.90
30037;DHT22;36325;51.512;-0.382;2023-08-08T17:51:29;17.50;99.90
30037;DHT22;36325;51.512;-0.382;2023-08-08T17:54:23;17.50;99.90
30037;DHT22;36325;51.512;-0.382;2023-08-08T17:56:58;17.50;99.90
30037;DHT22;36325;51.512;-0.382;2023-08-08T18:03:35;17.50;99.90
30037;DHT22;36325;51.512;-0.382;2023-08-08T18:06:08;17.50;99.90
30037;DHT22;36325;51.512;-0.382;2023-08-08T18:08:37;17.50;99.90
30037;DHT22;36325;51.512;-0.382;2023-08-08T18:11:22;17.50;99.90
30037;DHT22;36325;51.512;-0.382;2023-08-08T18:17:21;17.40;99.90
30037;DHT22;36325;51.512;-0.382;2023-08-08T18:20:16;17.40;99.90
30037;DHT22;36325;51.512;-0.382;2023-08-08T18:22:58;17.40;99.90
30037;DHT22;36325;51.512;-0.382;2023-08-08T18:25:30;17.40;99.90
30037;DHT22;36325;51.512;-0.382;2023-08-08T18:28:00;17.30;99.90
30037;DHT22;36325;51.512;-0.382;2023-08-08T18:30:33;17.30;99.90
30037;DHT22;36325;51.512;-0.382;2023-08-08T18:36:08;17.20;99.90
30037;DHT22;36325;51.512;-0.382;2023-08-08T18:38:38;17.20;99.90
30037;DHT22;36325;51.512;-0.382;2023-08-08T18:41:06;17.20;99.90
30037;DHT22;36325;51.512;-0.382;2023-08-08T18:43:50;17.20;99.90
30037;DHT22;36325;51.512;-0.382;2023-08-08T18:46:24;17.20;99.90
30037;DHT22;36325;51.512;-0.382;2023-08-08T18:49:08;17.10;99.90
30037;DHT22;36325;51.512;-0.382;2023-08-08T18:51:40;17.20;99.90
30037;DHT22;36325;51.512;-0.382;2023-08-08T18:54:11;17.20;99.90
30037;DHT22;36325;51.512;-0.382;2023-08-08T19:00:03;17.20;99.90
30037;DHT22;36325;51.512;-0.382;2023-08-08T19:02:36;17.20;99.90
30037;DHT22;36325;51.512;-0.382;2023-08-08T19:05:35;17.20;99.90
30037;DHT22;36325;51.512;-0.382;2023-08-08T19:08:06;17.20;99.90
30037;DHT22;36325;51.512;-0.382;2023-08-08T19:10:34;17.20;99.90
30037;DHT22;36325;51.512;-0.382;2023-08-08T19:13:31;17.20;99.90
30037;DHT22;36325;51.512;-0.382;2023-08-08T19:16:01;17.20;99.90
30037;DHT22;36325;51.512;-0.382;2023-08-08T19:18:47;17.20;99.90
30037;DHT22;36325;51.512;-0.382;2023-08-08T19:24:20;17.20;99.90
30037;DHT22;36325;51.512;-0.382;2023-08-08T19:26:48;17.20;99.90
30037;DHT22;36325;51.512;-0.382;2023-08-08T19:29:18;17.20;99.90